Time;durP1;ratioP1;P1;durP2;ratioP2;P2;SDS_P1;SDS_P2;PMS_P1;PMS_P2;Temp;Humidity;BMP_temperature;BMP_pressure;BME280_temperature;BME280_humidity;BME280_pressure;Samples;Min_cycle;Max_cycle;Signal;HPM_P1;HPM_P2
2022/07/31 00:00:39;;;;;;;6.60;4.30;;;;;;;;;;5033755;28;20033;-75
2022/07/31 00:03:06;;;;;;;7.57;4.55;;;;;;;;;;5027783;28;20521;-74
2022/07/31 00:05:33;;;;;;;7.28;4.35;;;;;;;;;;5026772;28;20029;-74
2022/07/31 00:07:59;;;;;;;7.75;4.53;;;;;;;;;;5028530;28;20024;-75
2022/07/31 00:10:25;;;;;;;8.55;4.50;;;;;;;;;;5027629;28;20025;-74
2022/07/31 00:12:51;;;;;;;9.25;4.65;;;;;;;;;;5027273;28;20044;-74
2022/07/31 00:15:18;;;;;;;7.15;4.00;;;;;;;;;;5025799;28;20025;-74
2022/07/31 00:17:44;;;;;;;7.03;4.40;;;;;;;;;;5028284;28;20029;-73
2022/07/31 00:20:15;;;;;;;8.63;4.50;;;;;;;;;;5027620;28;20030;-74
2022/07/31 00:22:42;;;;;;;11.63;4.47;;;;;;;;;;5024799;28;20025;-74
2022/07/31 00:25:08;;;;;;;7.60;4.85;;;;;;;;;;5025377;28;20692;-74
2022/07/31 00:27:35;;;;;;;14.13;5.13;;;;;;;;;;5028808;28;20502;-74
2022/07/31 00:30:01;;;;;;;6.68;4.18;;;;;;;;;;5026397;28;20022;-74
2022/07/31 00:32:27;;;;;;;11.30;4.75;;;;;;;;;;5026586;28;20106;-74
2022/07/31 00:34:53;;;;;;;11.60;5.30;;;;;;;;;;5026848;28;20022;-74
2022/07/31 00:37:19;;;;;;;8.55;5.13;;;;;;;;;;5020424;28;20435;-75
2022/07/31 00:39:45;;;;;;;7.07;4.50;;;;;;;;;;5023773;28;20468;-72
2022/07/31 00:42:17;;;;;;;9.02;4.22;;;;;;;;;;5022813;28;20037;-74
2022/07/31 00:44:44;;;;;;;7.82;4.32;;;;;;;;;;5023165;28;20072;-74
2022/07/31 00:47:10;;;;;;;10.55;4.53;;;;;;;;;;5027550;28;20029;-75
2022/07/31 00:49:36;;;;;;;9.32;4.35;;;;;;;;;;5017386;28;20029;-75
2022/07/31 00:52:02;;;;;;;8.48;4.15;;;;;;;;;;5022335;28;20032;-74
2022/07/31 00:54:28;;;;;;;9.25;5.13;;;;;;;;;;5024046;28;20057;-75
2022/07/31 00:56:55;;;;;;;7.32;4.00;;;;;;;;;;5025924;28;20025;-75
2022/07/31 00:59:21;;;;;;;11.10;4.35;;;;;;;;;;5024940;28;20033;-74
2022/07/31 01:01:47;;;;;;;10.70;4.20;;;;;;;;;;5028315;28;20124;-74
2022/07/31 01:04:15;;;;;;;8.95;4.55;;;;;;;;;;5023960;28;20029;-74
2022/07/31 01:06:41;;;;;;;10.18;4.15;;;;;;;;;;5023926;28;20024;-74
2022/07/31 01:09:07;;;;;;;10.05;4.20;;;;;;;;;;5027119;28;20025;-75
2022/07/31 01:11:38;;;;;;;9.80;4.38;;;;;;;;;;5026932;28;20109;-75
2022/07/31 01:14:06;;;;;;;7.72;4.68;;;;;;;;;;5024751;28;20022;-75
2022/07/31 01:16:35;;;;;;;7.63;4.35;;;;;;;;;;5026033;28;20018;-75
2022/07/31 01:19:04;;;;;;;7.78;3.97;;;;;;;;;;5027547;28;20040;-74
2022/07/31 01:21:42;;;;;;;9.38;4.20;;;;;;;;;;5023232;28;20474;-74
2022/07/31 01:24:23;;;;;;;6.82;4.10;;;;;;;;;;5024294;28;20383;-73
2022/07/31 01:26:52;;;;;;;2.92;2.60;;;;;;;;;;5024317;28;20014;-74
2022/07/31 01:29:22;;;;;;;4.82;2.53;;;;;;;;;;5025462;28;20373;-74
2022/07/31 01:31:51;;;;;;;3.13;2.30;;;;;;;;;;5028004;28;20032;-75
2022/07/31 01:34:36;;;;;;;2.53;1.98;;;;;;;;;;5028160;28;20540;-74
2022/07/31 01:37:08;;;;;;;2.93;2.20;;;;;;;;;;5026533;28;20041;-74
2022/07/31 01:39:36;;;;;;;3.13;2.25;;;;;;;;;;5022922;28;20018;-75
2022/07/31 01:42:04;;;;;;;2.65;2.00;;;;;;;;;;5026652;28;20027;-75
2022/07/31 01:44:31;;;;;;;3.50;2.40;;;;;;;;;;5022868;28;20022;-74
2022/07/31 01:46:57;;;;;;;2.42;2.05;;;;;;;;;;5027342;28;20448;-75
2022/07/31 01:49:24;;;;;;;3.40;2.47;;;;;;;;;;5023839;28;20030;-74
2022/07/31 01:51:51;;;;;;;3.05;2.22;;;;;;;;;;5023175;28;20502;-74
2022/07/31 01:54:18;;;;;;;4.00;2.80;;;;;;;;;;5027875;28;20069;-74
2022/07/31 01:56:46;;;;;;;4.38;2.30;;;;;;;;;;5026423;28;20022;-73
2022/07/31 01:59:13;;;;;;;4.53;2.85;;;;;;;;;;5027166;28;20447;-75
2022/07/31 02:01:39;;;;;;;8.80;3.45;;;;;;;;;;5024996;28;20036;-74
2022/07/31 02:04:06;;;;;;;3.88;2.50;;;;;;;;;;5026371;28;20486;-74
2022/07/31 02:06:32;;;;;;;4.32;2.85;;;;;;;;;;5023305;28;20071;-74
2022/07/31 02:08:59;;;;;;;3.40;2.75;;;;;;;;;;5026208;28;20411;-75
2022/07/31 02:11:25;;;;;;;3.28;2.38;;;;;;;;;;5020691;28;20031;-73
2022/07/31 02:13:52;;;;;;;4.85;3.00;;;;;;;;;;5024123;28;20029;-73
2022/07/31 02:16:19;;;;;;;3.15;2.28;;;;;;;;;;5024959;28;20380;-74
2022/07/31 02:18:47;;;;;;;3.08;2.25;;;;;;;;;;5018990;28;20483;-74
2022/07/31 02:21:13;;;;;;;3.08;2.40;;;;;;;;;;5025067;28;20074;-74
2022/07/31 02:23:40;;;;;;;3.35;2.63;;;;;;;;;;5026830;28;20026;-75
2022/07/31 02:26:07;;;;;;;3.88;2.60;;;;;;;;;;5024460;28;20297;-74
2022/07/31 02:28:35;;;;;;;3.95;2.30;;;;;;;;;;5022004;28;20107;-73
2022/07/31 02:31:02;;;;;;;3.83;2.42;;;;;;;;;;5022053;28;21034;-74
2022/07/31 02:33:28;;;;;;;3.40;2.53;;;;;;;;;;5025605;28;20034;-74
2022/07/31 02:35:55;;;;;;;2.70;2.28;;;;;;;;;;5023233;28;20026;-74
2022/07/31 02:38:23;;;;;;;4.50;2.20;;;;;;;;;;5028028;28;20049;-74
2022/07/31 02:40:50;;;;;;;4.50;2.10;;;;;;;;;;5031649;28;20065;-78
2022/07/31 02:43:17;;;;;;;4.25;2.47;;;;;;;;;;5030910;28;20037;-74
2022/07/31 02:45:43;;;;;;;2.50;2.03;;;;;;;;;;5028183;28;20140;-74
2022/07/31 02:48:09;;;;;;;3.83;2.30;;;;;;;;;;5029336;28;20021;-75
2022/07/31 02:50:36;;;;;;;4.93;2.47;;;;;;;;;;5027436;28;20049;-75
2022/07/31 02:53:02;;;;;;;3.78;2.47;;;;;;;;;;5029095;28;20071;-75
2022/07/31 02:55:29;;;;;;;5.10;2.65;;;;;;;;;;5029073;28;20029;-74
2022/07/31 02:57:55;;;;;;;5.00;2.30;;;;;;;;;;5022717;28;20032;-75
2022/07/31 03:00:22;;;;;;;4.68;2.70;;;;;;;;;;5025254;28;20423;-73
2022/07/31 03:02:51;;;;;;;3.03;2.40;;;;;;;;;;5023255;28;20033;-74
2022/07/31 03:05:18;;;;;;;3.40;2.30;;;;;;;;;;5023391;28;20047;-73
2022/07/31 03:07:44;;;;;;;6.97;2.45;;;;;;;;;;5021482;28;20025;-75
2022/07/31 03:10:11;;;;;;;3.97;2.92;;;;;;;;;;5029309;28;20052;-75
2022/07/31 03:12:39;;;;;;;2.28;2.08;;;;;;;;;;5028934;28;20025;-75
2022/07/31 03:15:08;;;;;;;3.78;2.58;;;;;;;;;;5023008;28;20036;-75
2022/07/31 03:17:36;;;;;;;3.22;2.22;;;;;;;;;;5024202;28;20124;-75
2022/07/31 03:20:02;;;;;;;3.55;2.85;;;;;;;;;;5027861;28;20034;-75
2022/07/31 03:22:28;;;;;;;3.65;2.70;;;;;;;;;;5026482;28;20232;-74
2022/07/31 03:24:54;;;;;;;3.00;2.30;;;;;;;;;;5025805;28;20029;-75
2022/07/31 03:27:21;;;;;;;5.18;2.60;;;;;;;;;;5022647;28;20506;-75
2022/07/31 03:29:48;;;;;;;4.65;2.30;;;;;;;;;;5024917;28;20619;-74
2022/07/31 03:32:14;;;;;;;2.90;2.45;;;;;;;;;;5026989;28;20033;-74
2022/07/31 03:34:40;;;;;;;3.47;2.38;;;;;;;;;;5025878;28;20029;-75
2022/07/31 03:37:07;;;;;;;4.20;2.05;;;;;;;;;;5024565;28;20096;-74
2022/07/31 03:39:33;;;;;;;3.38;2.30;;;;;;;;;;5026156;28;20558;-74
2022/07/31 03:42:00;;;;;;;3.17;2.03;;;;;;;;;;5026862;28;20033;-74
2022/07/31 03:44:27;;;;;;;4.55;2.33;;;;;;;;;;5021985;28;20021;-72
2022/07/31 03:46:53;;;;;;;2.63;2.03;;;;;;;;;;5020408;28;20112;-74
2022/07/31 03:49:19;;;;;;;3.55;2.30;;;;;;;;;;5026451;28;20383;-74
2022/07/31 03:51:46;;;;;;;3.08;2.35;;;;;;;;;;5026513;28;20112;-74
2022/07/31 03:54:12;;;;;;;5.10;2.42;;;;;;;;;;5027436;28;20029;-74
2022/07/31 03:56:40;;;;;;;3.33;2.30;;;;;;;;;;5028030;28;20021;-75
2022/07/31 03:59:06;;;;;;;2.45;2.05;;;;;;;;;;5027517;28;20029;-74
2022/07/31 04:01:33;;;;;;;2.40;2.08;;;;;;;;;;5027630;28;20035;-75
2022/07/31 04:04:00;;;;;;;2.92;2.13;;;;;;;;;;5026244;28;20052;-74
2022/07/31 04:06:26;;;;;;;2.83;2.20;;;;;;;;;;5029250;28;20112;-75
2022/07/31 04:08:52;;;;;;;1.95;1.77;;;;;;;;;;5026653;28;20022;-75
2022/07/31 04:11:18;;;;;;;2.20;1.63;;;;;;;;;;5029705;28;20049;-75
2022/07/31 04:13:44;;;;;;;2.33;1.77;;;;;;;;;;5027732;28;20440;-75
2022/07/31 04:16:10;;;;;;;3.00;1.70;;;;;;;;;;5030006;28;20033;-75
2022/07/31 04:18:36;;;;;;;1.95;1.75;;;;;;;;;;5028261;28;20025;-75
2022/07/31 04:21:02;;;;;;;3.00;2.22;;;;;;;;;;5016538;28;20032;-75
2022/07/31 04:23:28;;;;;;;3.38;2.00;;;;;;;;;;5027244;28;20021;-74
2022/07/31 04:25:54;;;;;;;2.00;1.80;;;;;;;;;;5026357;28;20403;-75
2022/07/31 04:28:21;;;;;;;2.47;1.90;;;;;;;;;;5025788;28;20021;-75
2022/07/31 04:30:47;;;;;;;2.20;1.90;;;;;;;;;;5026624;28;20498;-75
2022/07/31 04:33:13;;;;;;;2.17;1.98;;;;;;;;;;5025413;28;20029;-75
2022/07/31 04:35:41;;;;;;;2.17;1.90;;;;;;;;;;5025715;28;20035;-75
2022/07/31 04:38:07;;;;;;;3.00;2.30;;;;;;;;;;5024871;28;20053;-75
2022/07/31 04:40:33;;;;;;;2.65;2.20;;;;;;;;;;5024316;28;20113;-76
2022/07/31 04:42:59;;;;;;;3.00;2.15;;;;;;;;;;5026530;28;20026;-75
2022/07/31 04:45:25;;;;;;;5.00;2.72;;;;;;;;;;5027479;28;20033;-75
2022/07/31 04:47:51;;;;;;;2.63;2.22;;;;;;;;;;5027629;28;20021;-75
2022/07/31 04:50:17;;;;;;;2.70;2.38;;;;;;;;;;5028413;28;20029;-75
2022/07/31 04:52:43;;;;;;;3.15;2.40;;;;;;;;;;5019431;28;20022;-74
2022/07/31 04:55:10;;;;;;;3.80;2.15;;;;;;;;;;5013948;28;20116;-75
2022/07/31 04:57:36;;;;;;;2.28;2.08;;;;;;;;;;5028140;28;20100;-75
2022/07/31 05:00:03;;;;;;;4.20;2.20;;;;;;;;;;5025484;28;20030;-75
2022/07/31 05:02:30;;;;;;;4.30;2.47;;;;;;;;;;5027830;28;20434;-76
2022/07/31 05:04:56;;;;;;;4.25;2.45;;;;;;;;;;5025935;28;20033;-75
2022/07/31 05:07:22;;;;;;;4.45;2.15;;;;;;;;;;5028548;28;20029;-75
2022/07/31 05:09:48;;;;;;;2.13;1.90;;;;;;;;;;5023195;28;20071;-75
2022/07/31 05:12:14;;;;;;;5.78;3.03;;;;;;;;;;5027000;28;20040;-75
2022/07/31 05:14:40;;;;;;;2.38;2.00;;;;;;;;;;5026131;28;20029;-75
2022/07/31 05:17:06;;;;;;;3.90;2.10;;;;;;;;;;5025412;28;20391;-75
2022/07/31 05:19:33;;;;;;;3.92;2.00;;;;;;;;;;5027240;28;20021;-75
2022/07/31 05:21:59;;;;;;;3.90;2.10;;;;;;;;;;5023544;28;20033;-75
2022/07/31 05:24:25;;;;;;;2.58;1.83;;;;;;;;;;5026099;28;20026;-75
2022/07/31 05:26:51;;;;;;;2.45;2.05;;;;;;;;;;5023517;28;20061;-75
2022/07/31 05:29:17;;;;;;;3.25;1.80;;;;;;;;;;5024763;28;20053;-74
2022/07/31 05:31:43;;;;;;;2.55;1.63;;;;;;;;;;5023638;28;20481;-75
2022/07/31 05:34:10;;;;;;;2.35;1.88;;;;;;;;;;5023610;28;20036;-75
2022/07/31 05:36:36;;;;;;;2.35;1.80;;;;;;;;;;5027292;28;20059;-74
2022/07/31 05:39:02;;;;;;;3.05;2.10;;;;;;;;;;5022279;28;20017;-75
2022/07/31 05:41:29;;;;;;;2.30;1.90;;;;;;;;;;5023815;28;20025;-75
2022/07/31 05:43:55;;;;;;;1.60;1.50;;;;;;;;;;5024483;28;20445;-75
2022/07/31 05:46:21;;;;;;;1.55;1.45;;;;;;;;;;5025579;28;20029;-74
2022/07/31 05:48:55;;;;;;;2.00;1.60;;;;;;;;;;5028136;28;20021;-75
2022/07/31 05:51:21;;;;;;;1.48;1.38;;;;;;;;;;5025864;28;20030;-75
2022/07/31 05:53:47;;;;;;;2.45;1.67;;;;;;;;;;5024845;28;20057;-75
2022/07/31 05:56:13;;;;;;;1.52;1.42;;;;;;;;;;5026169;28;20503;-74
2022/07/31 05:58:39;;;;;;;1.60;1.50;;;;;;;;;;5026571;28;20037;-74
2022/07/31 06:01:06;;;;;;;1.65;1.50;;;;;;;;;;5027332;28;20506;-74
2022/07/31 06:03:34;;;;;;;3.53;1.50;;;;;;;;;;5025563;28;20041;-74
2022/07/31 06:06:01;;;;;;;1.70;1.60;;;;;;;;;;5025918;28;20017;-76
2022/07/31 06:08:27;;;;;;;2.22;1.70;;;;;;;;;;5027083;28;20112;-75
2022/07/31 06:10:54;;;;;;;3.45;1.80;;;;;;;;;;5028447;28;20060;-75
2022/07/31 06:13:23;;;;;;;1.67;1.55;;;;;;;;;;5030793;28;20025;-75
2022/07/31 06:15:49;;;;;;;2.13;1.50;;;;;;;;;;5031997;28;20391;-76
2022/07/31 06:18:15;;;;;;;1.60;1.50;;;;;;;;;;5031848;28;20037;-75
2022/07/31 06:20:41;;;;;;;1.60;1.50;;;;;;;;;;5024648;28;20028;-76
2022/07/31 06:23:08;;;;;;;1.48;1.38;;;;;;;;;;5028957;28;20056;-75
2022/07/31 06:25:34;;;;;;;2.03;1.60;;;;;;;;;;5029130;28;20026;-75
2022/07/31 06:28:00;;;;;;;1.27;1.17;;;;;;;;;;5030612;28;20097;-74
2022/07/31 06:30:26;;;;;;;2.15;1.50;;;;;;;;;;5026869;28;20033;-75
2022/07/31 06:32:52;;;;;;;2.90;1.50;;;;;;;;;;5028556;28;20021;-74
2022/07/31 06:35:18;;;;;;;2.75;1.60;;;;;;;;;;5027421;28;20030;-74
2022/07/31 06:37:44;;;;;;;1.50;1.40;;;;;;;;;;5026952;28;20056;-74
2022/07/31 06:40:11;;;;;;;1.55;1.45;;;;;;;;;;5029440;28;20025;-74
2022/07/31 06:42:37;;;;;;;2.75;1.40;;;;;;;;;;5026290;28;20025;-74
2022/07/31 06:45:03;;;;;;;1.50;1.40;;;;;;;;;;5027241;28;20260;-75
2022/07/31 06:47:29;;;;;;;1.70;1.60;;;;;;;;;;5028070;28;20053;-74
2022/07/31 06:49:56;;;;;;;1.67;1.42;;;;;;;;;;5025542;28;20036;-74
2022/07/31 06:52:22;;;;;;;1.58;1.48;;;;;;;;;;5027012;28;20057;-74
2022/07/31 06:54:48;;;;;;;2.05;1.50;;;;;;;;;;5027476;28;20040;-75
2022/07/31 06:57:14;;;;;;;2.15;1.40;;;;;;;;;;5030708;28;20095;-75
2022/07/31 06:59:40;;;;;;;1.48;1.38;;;;;;;;;;5029222;28;20102;-75
2022/07/31 07:02:07;;;;;;;1.65;1.48;;;;;;;;;;5030455;28;20035;-75
2022/07/31 07:04:33;;;;;;;1.50;1.40;;;;;;;;;;5028378;28;20029;-75
2022/07/31 07:06:59;;;;;;;3.42;1.67;;;;;;;;;;5029526;28;20024;-74
2022/07/31 07:09:25;;;;;;;1.58;1.45;;;;;;;;;;5025638;28;20041;-75
2022/07/31 07:11:52;;;;;;;2.70;1.60;;;;;;;;;;5029106;28;20032;-75
2022/07/31 07:14:18;;;;;;;1.75;1.65;;;;;;;;;;5027399;28;20060;-74
2022/07/31 07:16:44;;;;;;;1.90;1.55;;;;;;;;;;5024753;28;20069;-74
2022/07/31 07:19:10;;;;;;;1.75;1.50;;;;;;;;;;5029081;28;20088;-74
2022/07/31 07:21:36;;;;;;;1.60;1.50;;;;;;;;;;5027768;28;20530;-75
2022/07/31 07:24:02;;;;;;;1.40;1.30;;;;;;;;;;5028040;28;20033;-75
2022/07/31 07:26:29;;;;;;;1.20;1.20;;;;;;;;;;5028147;28;20018;-74
2022/07/31 07:28:55;;;;;;;1.52;1.42;;;;;;;;;;5029554;28;20338;-74
2022/07/31 07:31:22;;;;;;;1.75;1.48;;;;;;;;;;5029839;28;20022;-75
2022/07/31 07:33:50;;;;;;;2.58;2.25;;;;;;;;;;5028350;28;20032;-74
2022/07/31 07:36:17;;;;;;;1.60;1.50;;;;;;;;;;5029079;28;20026;-75
2022/07/31 07:38:43;;;;;;;1.70;1.60;;;;;;;;;;5028314;28;20045;-75
2022/07/31 07:41:09;;;;;;;1.92;1.65;;;;;;;;;;5027819;28;20068;-74
2022/07/31 07:43:35;;;;;;;1.80;1.70;;;;;;;;;;5029064;28;20100;-74
2022/07/31 07:46:01;;;;;;;2.13;1.80;;;;;;;;;;5028576;28;20033;-74
2022/07/31 07:48:27;;;;;;;2.38;1.85;;;;;;;;;;5028675;28;20514;-75
2022/07/31 07:50:53;;;;;;;1.83;1.70;;;;;;;;;;5027681;28;20029;-75
2022/07/31 07:53:19;;;;;;;2.13;1.83;;;;;;;;;;5028618;28;20026;-74
2022/07/31 07:55:45;;;;;;;2.80;2.10;;;;;;;;;;5027592;28;20045;-75
2022/07/31 07:58:11;;;;;;;1.48;1.38;;;;;;;;;;5030131;28;20306;-75
2022/07/31 08:00:37;;;;;;;1.65;1.42;;;;;;;;;;5031335;28;20368;-75
2022/07/31 08:03:04;;;;;;;1.65;1.35;;;;;;;;;;5028245;28;20026;-75
2022/07/31 08:05:30;;;;;;;2.10;1.45;;;;;;;;;;5029201;28;20026;-75
2022/07/31 08:07:56;;;;;;;1.90;1.50;;;;;;;;;;5029414;28;20551;-76
2022/07/31 08:10:22;;;;;;;3.25;1.48;;;;;;;;;;5026194;28;20018;-74
2022/07/31 08:12:49;;;;;;;1.50;1.40;;;;;;;;;;5028292;28;20461;-75
2022/07/31 08:15:15;;;;;;;1.55;1.30;;;;;;;;;;5024602;28;20025;-75
2022/07/31 08:17:41;;;;;;;1.50;1.40;;;;;;;;;;5026243;28;20369;-75
2022/07/31 08:20:08;;;;;;;1.55;1.45;;;;;;;;;;5025842;28;20036;-75
2022/07/31 08:22:34;;;;;;;1.50;1.40;;;;;;;;;;5029208;28;20283;-75
2022/07/31 08:25:00;;;;;;;1.60;1.45;;;;;;;;;;5027018;28;20498;-75
2022/07/31 08:27:26;;;;;;;1.70;1.50;;;;;;;;;;5028680;28;20133;-74
2022/07/31 08:29:54;;;;;;;1.70;1.60;;;;;;;;;;5026577;28;20824;-74
2022/07/31 08:32:20;;;;;;;2.55;1.65;;;;;;;;;;5022371;28;20400;-75
2022/07/31 08:34:46;;;;;;;2.10;1.80;;;;;;;;;;5027482;28;20030;-75
2022/07/31 08:37:13;;;;;;;2.20;1.70;;;;;;;;;;5023576;28;20053;-74
2022/07/31 08:39:39;;;;;;;1.60;1.50;;;;;;;;;;5027750;28;20059;-75
2022/07/31 08:42:06;;;;;;;2.13;1.60;;;;;;;;;;5028210;28;20369;-75
2022/07/31 08:44:32;;;;;;;1.73;1.60;;;;;;;;;;5027337;28;20044;-75
2022/07/31 08:46:59;;;;;;;2.00;1.80;;;;;;;;;;5026713;28;20040;-74
2022/07/31 08:49:25;;;;;;;2.20;1.80;;;;;;;;;;5026759;28;20056;-74
2022/07/31 08:51:53;;;;;;;4.38;2.30;;;;;;;;;;5020097;28;20026;-74
2022/07/31 08:54:20;;;;;;;2.28;2.05;;;;;;;;;;5027503;28;20022;-74
2022/07/31 08:56:51;;;;;;;2.58;1.98;;;;;;;;;;5021773;28;20091;-74
2022/07/31 08:59:17;;;;;;;2.72;2.45;;;;;;;;;;5025568;28;20048;-74
2022/07/31 09:01:43;;;;;;;4.80;2.15;;;;;;;;;;5027614;28;20018;-75
2022/07/31 09:04:10;;;;;;;2.20;2.00;;;;;;;;;;5024665;28;20040;-76
2022/07/31 09:06:36;;;;;;;3.28;2.10;;;;;;;;;;5027076;28;20030;-74
2022/07/31 09:09:03;;;;;;;4.70;2.13;;;;;;;;;;5023850;28;20025;-75
2022/07/31 09:11:29;;;;;;;2.65;1.98;;;;;;;;;;5025125;28;20025;-74
2022/07/31 09:13:56;;;;;;;2.22;2.00;;;;;;;;;;5025520;28;20137;-73
2022/07/31 09:16:23;;;;;;;4.43;2.30;;;;;;;;;;5026384;28;20079;-74
2022/07/31 09:18:56;;;;;;;2.03;1.83;;;;;;;;;;5019998;28;20029;-74
2022/07/31 09:21:22;;;;;;;2.20;2.00;;;;;;;;;;5025906;28;20398;-74
2022/07/31 09:23:48;;;;;;;3.53;1.98;;;;;;;;;;5025958;28;20483;-74
2022/07/31 09:26:14;;;;;;;2.47;2.25;;;;;;;;;;5026074;28;20033;-74
2022/07/31 09:28:42;;;;;;;2.92;1.80;;;;;;;;;;5026588;28;20058;-74
2022/07/31 09:31:09;;;;;;;2.22;1.92;;;;;;;;;;5023392;28;20041;-74
2022/07/31 09:33:37;;;;;;;3.35;2.53;;;;;;;;;;5023718;28;20033;-77
2022/07/31 09:36:04;;;;;;;3.63;2.90;;;;;;;;;;5025871;28;20391;-76
2022/07/31 09:38:31;;;;;;;2.42;2.22;;;;;;;;;;5025605;28;20506;-77
2022/07/31 09:41:08;;;;;;;7.50;2.25;;;;;;;;;;5027175;28;20037;-74
2022/07/31 09:43:34;;;;;;;2.55;2.20;;;;;;;;;;5029220;28;20033;-73
2022/07/31 09:46:00;;;;;;;2.40;2.13;;;;;;;;;;5029886;28;20021;-74
2022/07/31 09:48:27;;;;;;;2.67;2.30;;;;;;;;;;5029863;28;20090;-74
2022/07/31 09:50:54;;;;;;;2.30;1.98;;;;;;;;;;5030065;28;20021;-73
2022/07/31 09:53:20;;;;;;;2.47;2.17;;;;;;;;;;5027666;28;20022;-73
2022/07/31 09:55:53;;;;;;;2.17;1.98;;;;;;;;;;5029652;28;20557;-73
2022/07/31 09:58:20;;;;;;;2.70;2.25;;;;;;;;;;5028176;28;20111;-74
2022/07/31 10:00:47;;;;;;;2.70;1.90;;;;;;;;;;5029547;28;20052;-74
2022/07/31 10:03:13;;;;;;;2.78;2.10;;;;;;;;;;5027500;28;20034;-75
2022/07/31 10:05:41;;;;;;;2.30;2.00;;;;;;;;;;5031332;28;20021;-73
2022/07/31 10:08:08;;;;;;;2.58;2.20;;;;;;;;;;5028542;28;20045;-74
2022/07/31 10:10:34;;;;;;;2.80;2.50;;;;;;;;;;5027487;28;20682;-73
2022/07/31 10:13:03;;;;;;;3.67;2.17;;;;;;;;;;5016426;28;20018;-73
2022/07/31 10:15:29;;;;;;;2.67;2.08;;;;;;;;;;5024377;28;20048;-74
2022/07/31 10:17:56;;;;;;;6.10;2.83;;;;;;;;;;5030296;28;20112;-73
2022/07/31 10:20:23;;;;;;;5.25;2.25;;;;;;;;;;5028511;28;20029;-74
2022/07/31 10:22:53;;;;;;;2.63;2.13;;;;;;;;;;5029417;28;20108;-73
2022/07/31 10:25:21;;;;;;;3.78;2.20;;;;;;;;;;5026942;28;20040;-74
2022/07/31 10:27:47;;;;;;;4.55;2.35;;;;;;;;;;5030391;28;20462;-74
2022/07/31 10:30:14;;;;;;;3.35;2.60;;;;;;;;;;5029453;28;20033;-73
2022/07/31 10:32:40;;;;;;;3.35;2.10;;;;;;;;;;5029716;28;20026;-74
2022/07/31 10:35:06;;;;;;;3.78;2.35;;;;;;;;;;5028207;28;20025;-74
2022/07/31 10:37:42;;;;;;;3.05;2.70;;;;;;;;;;5029077;28;20056;-74
2022/07/31 10:40:09;;;;;;;4.68;2.40;;;;;;;;;;5025759;28;20029;-74
2022/07/31 10:42:41;;;;;;;3.85;2.40;;;;;;;;;;5024604;28;20076;-74
2022/07/31 10:45:09;;;;;;;2.80;2.42;;;;;;;;;;5028880;28;20037;-74
2022/07/31 10:47:36;;;;;;;3.78;2.22;;;;;;;;;;5027739;28;20017;-74
2022/07/31 10:50:05;;;;;;;2.92;2.05;;;;;;;;;;5028782;28;20021;-74
2022/07/31 10:52:33;;;;;;;2.60;2.40;;;;;;;;;;5030001;28;20049;-74
2022/07/31 10:55:02;;;;;;;4.10;2.10;;;;;;;;;;5027674;28;20030;-75
2022/07/31 10:57:33;;;;;;;3.65;2.20;;;;;;;;;;5025531;28;20426;-74
2022/07/31 11:00:19;;;;;;;2.17;1.98;;;;;;;;;;5027703;28;20104;-75
2022/07/31 11:02:46;;;;;;;3.92;2.08;;;;;;;;;;5029515;28;20053;-75
2022/07/31 11:05:13;;;;;;;2.33;2.05;;;;;;;;;;5029704;28;20033;-75
2022/07/31 11:07:40;;;;;;;2.95;2.00;;;;;;;;;;5028014;28;20030;-75
2022/07/31 11:10:10;;;;;;;3.80;2.00;;;;;;;;;;5028100;28;20022;-74
2022/07/31 11:12:37;;;;;;;3.65;2.30;;;;;;;;;;5026738;28;20029;-73
2022/07/31 11:15:03;;;;;;;2.50;2.30;;;;;;;;;;5029169;28;20028;-74
2022/07/31 11:17:35;;;;;;;3.05;2.20;;;;;;;;;;5031531;28;20034;-75
2022/07/31 11:20:01;;;;;;;3.15;2.00;;;;;;;;;;5027869;28;20049;-75
2022/07/31 11:22:28;;;;;;;2.70;2.13;;;;;;;;;;5026616;28;20030;-74
2022/07/31 11:24:55;;;;;;;4.25;2.42;;;;;;;;;;5020566;28;20029;-74
2022/07/31 11:27:31;;;;;;;3.72;2.20;;;;;;;;;;5025409;28;20506;-74
2022/07/31 11:30:03;;;;;;;3.13;2.20;;;;;;;;;;5021874;28;20053;-75
2022/07/31 11:32:29;;;;;;;2.63;2.40;;;;;;;;;;5023977;28;20132;-74
2022/07/31 11:34:56;;;;;;;4.57;2.25;;;;;;;;;;5022112;28;20034;-74
2022/07/31 11:37:24;;;;;;;2.83;2.22;;;;;;;;;;5023162;28;20499;-75
2022/07/31 11:39:51;;;;;;;2.40;2.08;;;;;;;;;;5022792;28;20037;-75
2022/07/31 11:42:17;;;;;;;4.82;2.28;;;;;;;;;;5022471;28;20459;-75
2022/07/31 11:44:44;;;;;;;2.72;2.30;;;;;;;;;;5022974;28;20021;-74
2022/07/31 11:47:10;;;;;;;2.20;2.00;;;;;;;;;;5023595;28;20494;-74
2022/07/31 11:49:36;;;;;;;3.13;2.28;;;;;;;;;;5022943;28;20498;-75
2022/07/31 11:52:04;;;;;;;3.75;2.42;;;;;;;;;;5022975;28;20132;-74
2022/07/31 11:54:30;;;;;;;2.58;2.38;;;;;;;;;;5022895;28;20029;-74
2022/07/31 11:56:56;;;;;;;2.90;2.00;;;;;;;;;;5023719;28;21249;-74
2022/07/31 11:59:29;;;;;;;3.00;2.60;;;;;;;;;;5022554;28;20112;-76
2022/07/31 12:02:02;;;;;;;2.50;2.30;;;;;;;;;;5022805;28;20085;-75
2022/07/31 12:04:29;;;;;;;2.95;2.15;;;;;;;;;;5021744;28;20664;-76
2022/07/31 12:06:56;;;;;;;3.67;2.03;;;;;;;;;;5023266;28;20040;-75
2022/07/31 12:09:22;;;;;;;3.95;2.30;;;;;;;;;;5020666;28;20022;-75
2022/07/31 12:11:48;;;;;;;6.30;2.45;;;;;;;;;;5023955;28;20025;-74
2022/07/31 12:14:14;;;;;;;2.50;2.30;;;;;;;;;;5022196;28;20491;-74
2022/07/31 12:16:41;;;;;;;2.42;2.00;;;;;;;;;;5022291;28;20037;-77
2022/07/31 12:19:07;;;;;;;2.45;2.05;;;;;;;;;;5022649;28;20033;-75
2022/07/31 12:21:35;;;;;;;2.38;2.17;;;;;;;;;;5021135;28;20495;-76
2022/07/31 12:24:02;;;;;;;3.05;2.40;;;;;;;;;;5022612;28;20479;-76
2022/07/31 12:26:32;;;;;;;3.08;2.13;;;;;;;;;;5022621;28;20032;-74
2022/07/31 12:29:05;;;;;;;2.67;2.38;;;;;;;;;;5021667;28;20036;-74
2022/07/31 12:31:43;;;;;;;2.40;2.20;;;;;;;;;;5022857;28;20112;-74
2022/07/31 12:34:09;;;;;;;3.40;2.50;;;;;;;;;;5020707;28;20487;-75
2022/07/31 12:36:38;;;;;;;3.30;2.30;;;;;;;;;;5022067;28;20040;-74
2022/07/31 12:39:04;;;;;;;3.67;2.85;;;;;;;;;;5022924;28;20107;-76
2022/07/31 12:41:40;;;;;;;2.88;2.42;;;;;;;;;;5022460;28;20029;-75
2022/07/31 12:44:10;;;;;;;3.05;2.40;;;;;;;;;;5022997;28;20030;-75
2022/07/31 12:46:37;;;;;;;3.58;2.50;;;;;;;;;;5020770;28;20029;-75
2022/07/31 12:49:07;;;;;;;3.08;2.00;;;;;;;;;;5021090;28;20020;-74
2022/07/31 12:51:33;;;;;;;6.72;2.58;;;;;;;;;;5021482;28;20018;-76
2022/07/31 12:53:59;;;;;;;2.78;2.35;;;;;;;;;;5023013;28;20030;-75
2022/07/31 12:56:25;;;;;;;2.13;1.92;;;;;;;;;;5023237;28;20029;-77
2022/07/31 12:58:51;;;;;;;2.50;2.30;;;;;;;;;;5023557;28;20025;-75
2022/07/31 13:01:17;;;;;;;2.28;2.00;;;;;;;;;;5022512;28;20419;-76
2022/07/31 13:03:45;;;;;;;2.40;2.20;;;;;;;;;;5021045;28;20026;-75
2022/07/31 13:06:11;;;;;;;2.58;1.95;;;;;;;;;;5021153;28;20341;-75
2022/07/31 13:08:37;;;;;;;3.97;2.20;;;;;;;;;;5020322;28;20273;-75
2022/07/31 13:11:03;;;;;;;1.88;1.75;;;;;;;;;;5020244;28;20025;-76
2022/07/31 13:13:29;;;;;;;3.28;2.28;;;;;;;;;;5021266;28;20029;-75
2022/07/31 13:15:55;;;;;;;2.72;2.30;;;;;;;;;;5019026;28;20034;-75
2022/07/31 13:18:21;;;;;;;3.85;2.30;;;;;;;;;;5021181;28;20037;-74
2022/07/31 13:20:47;;;;;;;5.38;2.33;;;;;;;;;;5022085;28;20029;-75
2022/07/31 13:23:14;;;;;;;2.67;2.47;;;;;;;;;;5020015;28;20033;-75
2022/07/31 13:25:40;;;;;;;2.70;2.13;;;;;;;;;;5022147;28;20018;-76
2022/07/31 13:28:06;;;;;;;3.30;2.33;;;;;;;;;;5020109;28;20348;-76
2022/07/31 13:30:32;;;;;;;3.38;2.30;;;;;;;;;;5019892;28;20034;-75
2022/07/31 13:32:58;;;;;;;4.82;2.60;;;;;;;;;;5019620;28;20056;-76
2022/07/31 13:35:24;;;;;;;2.50;2.20;;;;;;;;;;5020576;28;20025;-75
2022/07/31 13:37:51;;;;;;;3.15;2.80;;;;;;;;;;5021560;28;20140;-75
2022/07/31 13:40:18;;;;;;;2.55;2.35;;;;;;;;;;5021041;28;20503;-76
2022/07/31 13:42:44;;;;;;;2.72;2.30;;;;;;;;;;5020753;28;20413;-75
2022/07/31 13:45:10;;;;;;;3.03;2.17;;;;;;;;;;5019236;28;20021;-77
2022/07/31 13:47:37;;;;;;;3.03;2.10;;;;;;;;;;5022043;28;20068;-76
2022/07/31 13:50:03;;;;;;;2.67;2.47;;;;;;;;;;5020475;28;20017;-75
2022/07/31 13:52:29;;;;;;;2.60;2.40;;;;;;;;;;5020245;28;20030;-75
2022/07/31 13:54:55;;;;;;;2.22;1.98;;;;;;;;;;5022916;28;20103;-75
2022/07/31 13:57:21;;;;;;;2.90;2.03;;;;;;;;;;5021876;28;20036;-75
2022/07/31 13:59:47;;;;;;;2.60;2.10;;;;;;;;;;5019511;28;20026;-75
2022/07/31 14:02:14;;;;;;;2.63;2.22;;;;;;;;;;5022620;28;20902;-76
2022/07/31 14:04:40;;;;;;;1.95;1.83;;;;;;;;;;5020150;28;20080;-76
2022/07/31 14:07:06;;;;;;;2.30;2.10;;;;;;;;;;5019903;28;20095;-75
2022/07/31 14:09:33;;;;;;;2.55;2.10;;;;;;;;;;5021132;28;20030;-76
2022/07/31 14:11:59;;;;;;;2.35;2.13;;;;;;;;;;5021371;28;20056;-76
2022/07/31 14:14:25;;;;;;;3.25;1.83;;;;;;;;;;5018968;28;20096;-79
2022/07/31 14:16:51;;;;;;;3.22;2.00;;;;;;;;;;5020719;28;20105;-76
2022/07/31 14:19:19;;;;;;;2.72;2.03;;;;;;;;;;5020099;28;20025;-77
2022/07/31 14:21:45;;;;;;;3.25;1.90;;;;;;;;;;5019872;28;20030;-77
2022/07/31 14:24:11;;;;;;;2.88;2.38;;;;;;;;;;5021948;28;20026;-76
2022/07/31 14:26:37;;;;;;;2.30;2.10;;;;;;;;;;5020149;28;20132;-77
2022/07/31 14:29:03;;;;;;;3.05;2.00;;;;;;;;;;5023964;28;20029;-76
2022/07/31 14:31:29;;;;;;;2.47;2.20;;;;;;;;;;5024541;28;20033;-76
2022/07/31 14:33:55;;;;;;;2.60;2.13;;;;;;;;;;5022409;28;20032;-77
2022/07/31 14:36:22;;;;;;;2.03;1.83;;;;;;;;;;5024079;28;20029;-76
2022/07/31 14:38:48;;;;;;;2.00;1.80;;;;;;;;;;5024934;28;20049;-76
2022/07/31 14:41:14;;;;;;;2.08;1.88;;;;;;;;;;5022030;28;20033;-77